KFEP/FEP METAR and TAF weather

Enter ICAO airport designator
Station Type Date Time Source
KFEP METAR 2019/10/15 21:15 UTC NOAA

KFEP 152115Z AUTO 28018G21KT 10SM SCT035 15/08 A2975 RMK AO2 LTG DSNT E T01520078


Station Type Date Time Source
KFEP Decoded METAR 2019/10/15 21:15 UTC NOAA

Freeport, Albertus Airport, IL, United States (KFEP) 42-14-47N 089-34-56W
Oct 15, 2019 - 05:15 PM EDT / 2019.10.15 2115 UTC
Wind: from the W (280 degrees) at 21 MPH (18 KT) gusting to 24 MPH (21 KT):0
Visibility: 10 mile(s):0
Sky conditions: partly cloudy
Weather: Lightning observed
Temperature: 59.4 F (15.2 C)
Dew Point: 46.0 F (7.8 C)
Relative Humidity: 61%
Pressure (altimeter): 29.75 in. Hg (1007 hPa)
ob: KFEP 152115Z AUTO 28018G21KT 10SM SCT035 15/08 A2975 RMK AO2 LTG DSNT E T01520078
cycle: 21

Station Type Date Time Source
KFEP TAF UTC NOAA

Error!

Example: see airport list